Time;durP1;ratioP1;P1;durP2;ratioP2;P2;SDS_P1;SDS_P2;PMS_P1;PMS_P2;Temp;Humidity;BMP_temperature;BMP_pressure;BME280_temperature;BME280_humidity;BME280_pressure;Samples;Min_cycle;Max_cycle;Signal;HPM_P1;HPM_P2
2023/01/05 00:01:38;;;;;;;15.50;4.80;;;10.70;99.90;;;;;;6040674;23;20412;-77
2023/01/05 00:04:07;;;;;;;11.93;4.00;;;10.70;99.90;;;;;;6039455;23;20491;-78
2023/01/05 00:06:36;;;;;;;15.90;5.23;;;10.70;99.90;;;;;;6049500;23;21006;-76
2023/01/05 00:09:06;;;;;;;13.20;5.17;;;10.70;99.90;;;;;;6038417;23;20424;-76
2023/01/05 00:22:47;;;;;;;13.30;5.07;;;10.70;99.90;;;;;;6039891;23;20438;-78
2023/01/05 00:25:17;;;;;;;12.83;5.07;;;10.70;99.90;;;;;;6050404;23;20763;-77
2023/01/05 00:27:49;;;;;;;10.37;3.53;;;10.60;99.90;;;;;;6038885;23;20519;-77
2023/01/05 00:30:20;;;;;;;11.83;4.23;;;10.60;99.90;;;;;;6038914;23;20466;-78
2023/01/05 00:32:50;;;;;;;10.53;4.40;;;10.60;99.90;;;;;;6039120;23;20424;-77
2023/01/05 00:35:18;;;;;;;13.20;4.40;;;10.60;99.90;;;;;;6050777;23;20761;-78
2023/01/05 00:37:47;;;;;;;10.20;3.97;;;10.60;99.90;;;;;;6039171;23;20431;-77
2023/01/05 00:40:16;;;;;;;13.80;4.43;;;10.60;99.90;;;;;;6041284;23;20412;-77
2023/01/05 00:42:46;;;;;;;15.80;4.00;;;10.60;99.90;;;;;;6039921;23;20462;-78
2023/01/05 00:45:16;;;;;;;11.73;4.30;;;10.60;99.90;;;;;;6038572;23;20424;-77
2023/01/05 00:47:44;;;;;;;9.47;3.50;;;10.60;99.90;;;;;;6039220;23;20443;-77
2023/01/05 00:50:16;;;;;;;12.43;3.87;;;10.60;99.90;;;;;;6038888;23;20431;-77
2023/01/05 00:52:45;;;;;;;11.03;3.90;;;10.50;99.90;;;;;;6039510;23;20423;-78
2023/01/05 00:55:13;;;;;;;12.27;3.90;;;10.50;99.90;;;;;;6039623;23;20412;-78
2023/01/05 00:57:42;;;;;;;11.70;4.20;;;10.50;99.90;;;;;;6040112;23;20416;-78
2023/01/05 01:00:14;;;;;;;10.83;4.37;;;10.50;99.90;;;;;;6039289;23;20408;-77
2023/01/05 01:02:43;;;;;;;11.47;4.27;;;10.50;99.90;;;;;;6039187;23;20515;-78
2023/01/05 01:05:11;;;;;;;10.57;4.90;;;10.40;99.90;;;;;;6038714;23;20412;-77
2023/01/05 01:07:41;;;;;;;9.70;3.30;;;10.50;99.90;;;;;;6038913;23;20468;-78
2023/01/05 01:10:10;;;;;;;14.20;4.40;;;10.40;99.90;;;;;;6039431;23;20424;-78
2023/01/05 01:12:39;;;;;;;11.20;3.80;;;10.40;99.90;;;;;;6042203;23;20424;-78
2023/01/05 01:15:08;;;;;;;10.93;4.03;;;10.40;99.90;;;;;;6045995;23;20471;-78
2023/01/05 01:17:36;;;;;;;14.20;3.87;;;10.40;99.90;;;;;;6055074;23;20699;-78
2023/01/05 01:20:06;;;;;;;13.33;4.23;;;10.40;99.90;;;;;;6054381;23;20538;-77
2023/01/05 01:22:34;;;;;;;9.07;3.87;;;10.40;99.90;;;;;;6054351;23;20408;-77
2023/01/05 01:25:04;;;;;;;8.87;3.67;;;10.40;99.90;;;;;;6041547;23;20747;-78
2023/01/05 01:27:33;;;;;;;9.50;3.67;;;10.40;99.90;;;;;;6041844;23;20443;-78
2023/01/05 01:30:01;;;;;;;11.80;3.77;;;10.40;99.90;;;;;;6042014;23;20424;-78
2023/01/05 01:32:29;;;;;;;10.37;3.70;;;10.40;99.90;;;;;;6041348;23;20416;-78
2023/01/05 01:34:57;;;;;;;12.00;3.50;;;10.40;99.90;;;;;;6041098;23;20423;-76
2023/01/05 01:37:25;;;;;;;9.60;3.57;;;10.40;99.90;;;;;;6039911;23;20817;-76
2023/01/05 01:39:55;;;;;;;6.87;3.10;;;10.40;99.90;;;;;;6041300;23;20420;-78
2023/01/05 01:42:26;;;;;;;11.93;3.70;;;10.40;99.90;;;;;;6041212;23;20741;-77
2023/01/05 01:44:57;;;;;;;9.10;3.20;;;10.40;99.90;;;;;;6050981;23;20848;-77
2023/01/05 01:47:39;;;;;;;9.63;3.30;;;10.30;99.90;;;;;;6041181;23;20491;-77
2023/01/05 01:50:15;;;;;;;10.03;3.20;;;10.40;99.90;;;;;;6040570;23;20424;-77
2023/01/05 01:52:46;;;;;;;10.27;3.37;;;10.30;99.90;;;;;;6040376;23;20414;-77
2023/01/05 01:55:14;;;;;;;12.57;3.90;;;10.30;99.90;;;;;;6040353;23;20404;-77
2023/01/05 01:57:45;;;;;;;9.70;2.90;;;10.30;99.90;;;;;;6040556;23;20944;-77
2023/01/05 02:00:14;;;;;;;8.33;3.10;;;10.30;99.90;;;;;;6040513;23;20416;-77
2023/01/05 02:02:46;;;;;;;9.33;2.93;;;10.30;99.90;;;;;;6051495;23;20483;-77
2023/01/05 02:05:19;;;;;;;8.30;2.97;;;10.30;99.90;;;;;;6040014;23;20447;-77
2023/01/05 02:07:48;;;;;;;9.57;3.00;;;10.30;99.90;;;;;;6039799;23;20776;-76
2023/01/05 02:10:18;;;;;;;8.80;2.83;;;10.30;99.90;;;;;;6039777;23;20431;-77
2023/01/05 02:13:03;;;;;;;7.03;2.90;;;10.30;99.90;;;;;;6040917;23;20792;-77
2023/01/05 02:15:39;;;;;;;8.30;3.50;;;10.30;99.90;;;;;;6039631;23;20439;-77
2023/01/05 02:18:27;;;;;;;8.00;2.50;;;10.30;99.90;;;;;;6039772;23;20412;-77
2023/01/05 02:21:07;;;;;;;6.90;2.47;;;10.30;99.90;;;;;;6039679;23;20418;-77
2023/01/05 02:24:25;;;;;;;9.33;2.97;;;10.40;99.90;;;;;;6039735;23;20934;-77
2023/01/05 02:27:42;;;;;;;6.37;2.80;;;10.40;99.90;;;;;;6039347;23;20454;-77
2023/01/05 02:30:33;;;;;;;8.50;2.60;;;10.30;99.90;;;;;;5959014;24;20952;-76
2023/01/05 02:33:13;;;;;;;5.93;2.83;;;10.30;99.90;;;;;;6040318;23;20753;-78
2023/01/05 02:35:49;;;;;;;5.57;2.27;;;10.30;99.90;;;;;;6040054;23;20440;-76
2023/01/05 02:38:26;;;;;;;5.03;1.90;;;10.30;99.90;;;;;;6039674;23;20503;-77
2023/01/05 02:41:00;;;;;;;7.33;2.57;;;10.30;99.90;;;;;;6039950;23;20419;-77
2023/01/05 02:43:29;;;;;;;6.00;2.90;;;10.30;99.90;;;;;;6039750;23;20510;-76
2023/01/05 02:45:58;;;;;;;6.20;3.03;;;10.30;99.90;;;;;;6039521;23;20445;-77
2023/01/05 02:48:28;;;;;;;6.17;3.20;;;10.20;99.90;;;;;;6039396;23;20496;-77
2023/01/05 02:51:01;;;;;;;10.47;3.93;;;10.30;99.90;;;;;;6015857;23;20811;-77
2023/01/05 02:53:33;;;;;;;10.63;3.70;;;10.20;99.90;;;;;;6015784;23;20805;-77
2023/01/05 02:56:07;;;;;;;9.10;3.97;;;10.20;99.90;;;;;;6050624;23;20467;-77
2023/01/05 02:58:44;;;;;;;9.03;3.90;;;10.20;99.90;;;;;;6015638;23;20415;-77
2023/01/05 03:01:18;;;;;;;8.33;3.57;;;10.20;99.90;;;;;;6015705;23;20418;-77
2023/01/05 03:03:56;;;;;;;14.07;5.00;;;10.20;99.90;;;;;;6016219;23;20424;-77
2023/01/05 03:06:29;;;;;;;13.17;4.60;;;10.20;99.90;;;;;;6015815;23;20431;-77
2023/01/05 03:09:00;;;;;;;9.67;4.40;;;10.20;99.90;;;;;;6015790;23;20468;-78
2023/01/05 03:14:28;;;;;;;11.17;4.50;;;10.20;99.90;;;;;;6015903;23;20926;-77
2023/01/05 03:17:01;;;;;;;12.13;5.50;;;10.20;99.90;;;;;;6015637;23;20452;-77
2023/01/05 03:19:38;;;;;;;10.90;4.80;;;10.20;99.90;;;;;;6015826;23;20892;-77
2023/01/05 03:36:23;;;;;;;13.63;5.13;;;10.30;99.90;;;;;;6015118;23;20491;-76
2023/01/05 03:38:54;;;;;;;12.10;5.13;;;10.30;99.90;;;;;;6015361;23;20408;-77
2023/01/05 03:41:25;;;;;;;16.07;6.17;;;10.30;99.90;;;;;;6015305;23;20499;-76
2023/01/05 03:43:57;;;;;;;14.37;5.40;;;10.30;99.90;;;;;;6015189;23;20507;-76
2023/01/05 03:46:25;;;;;;;12.70;4.63;;;10.30;99.90;;;;;;6014904;23;20436;-76
2023/01/05 03:48:54;;;;;;;11.53;4.30;;;10.30;99.90;;;;;;6020381;23;20448;-77
2023/01/05 03:51:27;;;;;;;14.90;4.60;;;10.30;99.90;;;;;;6040045;23;20415;-76
2023/01/05 03:53:55;;;;;;;16.10;5.17;;;10.30;99.90;;;;;;6039937;23;20812;-77
2023/01/05 03:56:24;;;;;;;12.27;4.97;;;10.30;99.90;;;;;;6039727;23;20435;-76
2023/01/05 03:58:56;;;;;;;11.73;4.70;;;10.30;99.90;;;;;;6039076;23;20427;-76
2023/01/05 04:01:25;;;;;;;14.63;5.03;;;10.30;99.90;;;;;;6038666;23;20420;-77
2023/01/05 04:03:53;;;;;;;15.30;4.90;;;10.20;99.90;;;;;;6038549;23;20424;-77
2023/01/05 04:06:22;;;;;;;20.73;5.87;;;10.30;99.90;;;;;;6039937;23;20487;-77
2023/01/05 04:08:52;;;;;;;13.33;4.10;;;10.30;99.90;;;;;;6038710;23;20523;-77
2023/01/05 04:11:23;;;;;;;14.27;5.30;;;10.30;99.90;;;;;;6038437;23;20944;-77
2023/01/05 04:14:01;;;;;;;18.37;5.10;;;10.30;99.90;;;;;;6039084;23;20427;-76
2023/01/05 04:16:29;;;;;;;10.90;4.47;;;10.30;99.90;;;;;;6049434;23;20420;-77
2023/01/05 04:19:01;;;;;;;12.97;4.33;;;10.30;99.90;;;;;;6038677;23;20430;-77
2023/01/05 04:21:29;;;;;;;13.20;4.70;;;10.30;99.90;;;;;;6038281;23;21007;-77
2023/01/05 04:23:59;;;;;;;11.83;4.70;;;10.30;99.90;;;;;;6038220;23;20428;-76
2023/01/05 04:26:28;;;;;;;13.03;4.57;;;10.30;99.90;;;;;;6040047;23;20820;-76
2023/01/05 04:28:57;;;;;;;15.90;4.60;;;10.30;99.90;;;;;;6038196;23;20439;-76
2023/01/05 04:31:25;;;;;;;15.13;5.20;;;10.30;99.90;;;;;;6039544;23;20729;-76
2023/01/05 04:33:56;;;;;;;11.77;4.30;;;10.30;99.90;;;;;;6038609;23;20415;-76
2023/01/05 04:36:26;;;;;;;10.90;4.47;;;10.30;99.90;;;;;;6038278;23;20499;-76
2023/01/05 04:38:56;;;;;;;10.37;4.33;;;10.30;99.90;;;;;;6038717;23;20895;-76
2023/01/05 04:41:26;;;;;;;14.07;5.57;;;10.30;99.90;;;;;;6038336;23;20427;-76
2023/01/05 04:43:55;;;;;;;14.40;5.20;;;10.30;99.90;;;;;;6038294;23;20444;-75
2023/01/05 04:46:24;;;;;;;17.43;5.97;;;10.30;99.90;;;;;;6038142;23;20440;-76
2023/01/05 04:48:55;;;;;;;12.77;4.60;;;10.30;99.90;;;;;;6045043;23;20447;-76
2023/01/05 04:51:24;;;;;;;12.33;4.90;;;10.20;99.90;;;;;;6015886;23;20419;-76
2023/01/05 04:53:53;;;;;;;14.40;4.80;;;10.20;99.90;;;;;;6014557;23;20430;-76
2023/01/05 04:56:24;;;;;;;14.03;5.73;;;10.20;99.90;;;;;;6014939;23;20440;-76
2023/01/05 04:58:53;;;;;;;16.23;5.50;;;10.20;99.90;;;;;;6014591;23;20754;-76
2023/01/05 05:01:21;;;;;;;19.43;5.37;;;10.20;99.90;;;;;;6049522;23;20442;-77
2023/01/05 05:03:54;;;;;;;12.67;5.37;;;10.20;99.90;;;;;;6015593;23;20943;-76
2023/01/05 05:06:24;;;;;;;13.20;4.80;;;10.10;99.90;;;;;;6015045;23;20494;-76
2023/01/05 05:08:54;;;;;;;14.83;5.40;;;10.10;99.90;;;;;;6014905;23;20924;-77
2023/01/05 05:11:24;;;;;;;18.03;6.00;;;10.10;99.90;;;;;;6014998;23;20453;-76
2023/01/05 05:13:53;;;;;;;14.87;4.93;;;10.10;99.90;;;;;;6014804;23;20514;-76
2023/01/05 05:16:22;;;;;;;14.80;5.67;;;10.10;99.90;;;;;;6015267;23;20471;-76
2023/01/05 05:18:52;;;;;;;20.00;5.27;;;10.10;99.90;;;;;;6014609;23;20424;-77
2023/01/05 05:21:24;;;;;;;13.30;5.77;;;10.10;99.90;;;;;;6014655;23;20460;-76
2023/01/05 05:23:53;;;;;;;22.00;5.90;;;10.10;99.90;;;;;;6014710;23;20551;-76
2023/01/05 05:26:21;;;;;;;14.23;4.80;;;10.10;99.90;;;;;;6014475;23;20446;-76
2023/01/05 05:28:50;;;;;;;14.40;6.03;;;10.00;99.90;;;;;;6015455;23;20503;-76
2023/01/05 05:31:20;;;;;;;9.53;4.37;;;10.10;99.90;;;;;;6014958;23;20420;-76
2023/01/05 05:33:48;;;;;;;13.27;5.17;;;10.00;99.90;;;;;;6049510;23;20452;-76
2023/01/05 05:36:17;;;;;;;13.37;5.10;;;10.10;99.90;;;;;;6049055;23;20424;-76
2023/01/05 05:38:45;;;;;;;16.33;6.23;;;10.10;99.90;;;;;;6014511;23;20428;-76
2023/01/05 05:41:13;;;;;;;13.80;5.30;;;10.10;99.90;;;;;;6014384;23;20416;-76
2023/01/05 05:43:42;;;;;;;10.27;4.10;;;10.10;99.90;;;;;;6014965;23;20466;-76
2023/01/05 05:46:10;;;;;;;14.13;6.00;;;10.10;99.90;;;;;;6014531;23;20444;-76
2023/01/05 05:48:40;;;;;;;15.80;4.50;;;10.10;99.90;;;;;;6049222;23;20415;-76
2023/01/05 05:51:08;;;;;;;16.50;5.57;;;10.10;99.90;;;;;;6049647;23;20376;-76
2023/01/05 05:53:36;;;;;;;13.10;5.67;;;10.00;99.90;;;;;;6049301;23;20404;-76
2023/01/05 05:56:04;;;;;;;13.93;5.17;;;10.10;99.90;;;;;;6039822;23;20421;-76
2023/01/05 05:58:32;;;;;;;15.57;5.43;;;10.00;99.90;;;;;;6015745;23;20428;-76
2023/01/05 06:01:00;;;;;;;15.30;5.63;;;10.10;99.90;;;;;;6016158;23;20416;-76
2023/01/05 06:03:29;;;;;;;19.50;5.90;;;10.10;99.90;;;;;;6041710;23;20507;-77
2023/01/05 06:05:58;;;;;;;11.43;4.53;;;10.10;99.90;;;;;;6016248;23;20439;-77
2023/01/05 06:08:28;;;;;;;14.33;6.37;;;10.10;99.90;;;;;;6016139;23;20427;-76
2023/01/05 06:10:56;;;;;;;14.50;5.30;;;10.10;99.90;;;;;;6015827;23;20450;-76
2023/01/05 06:13:25;;;;;;;13.23;5.10;;;10.10;99.90;;;;;;6050568;23;20407;-76
2023/01/05 06:15:53;;;;;;;13.57;5.10;;;10.10;99.90;;;;;;6015709;23;20444;-76
2023/01/05 06:18:22;;;;;;;12.53;4.80;;;10.10;99.90;;;;;;6015767;23;20422;-76
2023/01/05 06:20:50;;;;;;;14.70;4.63;;;10.10;99.90;;;;;;6015728;23;20920;-76
2023/01/05 06:23:26;;;;;;;13.10;4.93;;;10.10;99.90;;;;;;6050657;23;20467;-76
2023/01/05 06:25:54;;;;;;;13.13;5.27;;;10.10;99.90;;;;;;6015421;23;20531;-76
2023/01/05 06:28:22;;;;;;;9.97;4.93;;;10.10;99.90;;;;;;6015777;23;20423;-76
2023/01/05 06:30:50;;;;;;;11.00;5.50;;;10.10;99.90;;;;;;6015818;23;20479;-76
2023/01/05 06:33:18;;;;;;;14.30;4.87;;;10.10;99.90;;;;;;6016136;23;20416;-76
2023/01/05 06:35:46;;;;;;;15.93;4.67;;;10.10;99.90;;;;;;6016097;23;20444;-76
2023/01/05 06:38:15;;;;;;;12.57;4.73;;;10.10;99.90;;;;;;6050548;23;20396;-77
2023/01/05 06:40:46;;;;;;;13.90;4.90;;;10.10;99.90;;;;;;6015584;23;20451;-76
2023/01/05 06:43:14;;;;;;;15.90;5.13;;;10.10;99.90;;;;;;6050648;23;20388;-76
2023/01/05 06:45:42;;;;;;;14.67;4.77;;;10.10;99.90;;;;;;6015449;23;20957;-76
2023/01/05 06:48:10;;;;;;;13.30;5.40;;;10.10;99.90;;;;;;6015298;23;20424;-77
2023/01/05 06:50:38;;;;;;;10.83;4.77;;;10.10;99.90;;;;;;6050193;23;20424;-76
2023/01/05 06:53:07;;;;;;;12.50;5.20;;;10.10;99.90;;;;;;6016185;23;20415;-76
2023/01/05 06:55:35;;;;;;;14.47;5.20;;;10.10;99.90;;;;;;6040522;23;20439;-76
2023/01/05 06:58:04;;;;;;;11.23;4.63;;;10.10;99.90;;;;;;6015511;23;20424;-76
2023/01/05 07:00:32;;;;;;;14.00;5.90;;;10.10;99.90;;;;;;6015736;23;20423;-77
2023/01/05 07:03:00;;;;;;;11.93;5.03;;;10.10;99.90;;;;;;6015690;23;20409;-77
2023/01/05 07:05:29;;;;;;;9.80;4.23;;;10.00;99.90;;;;;;6016266;23;20444;-77
2023/01/05 07:07:57;;;;;;;14.73;5.57;;;10.00;99.90;;;;;;6050115;23;20492;-77
2023/01/05 07:10:25;;;;;;;13.97;4.90;;;10.00;99.90;;;;;;6015541;23;20443;-77
2023/01/05 07:12:53;;;;;;;14.93;5.30;;;10.00;99.90;;;;;;6041469;23;20422;-77
2023/01/05 07:15:23;;;;;;;16.60;4.90;;;10.00;99.90;;;;;;6053413;23;20427;-78
2023/01/05 07:17:51;;;;;;;12.53;5.37;;;9.90;99.90;;;;;;6016808;23;20423;-77
2023/01/05 07:20:19;;;;;;;11.53;5.13;;;9.90;99.90;;;;;;6017191;23;20416;-77
2023/01/05 07:22:47;;;;;;;14.80;4.53;;;9.90;99.90;;;;;;6017535;23;20419;-77
2023/01/05 07:25:15;;;;;;;12.33;4.53;;;9.80;99.90;;;;;;6018383;23;20430;-78
2023/01/05 07:27:43;;;;;;;9.50;3.23;;;9.80;99.90;;;;;;6017113;23;20426;-77
2023/01/05 07:30:12;;;;;;;11.50;3.30;;;9.80;99.90;;;;;;6050926;23;20432;-77
2023/01/05 07:32:42;;;;;;;7.03;2.87;;;9.80;99.90;;;;;;6051716;23;20495;-77
2023/01/05 07:35:10;;;;;;;7.97;2.70;;;9.70;99.90;;;;;;6016161;23;20428;-77
2023/01/05 07:37:38;;;;;;;9.73;3.30;;;9.70;99.90;;;;;;6017440;23;20420;-77
2023/01/05 07:40:08;;;;;;;5.77;2.53;;;9.70;99.90;;;;;;6043684;23;20412;-77
2023/01/05 07:42:36;;;;;;;7.43;2.20;;;9.70;99.90;;;;;;6052879;23;20404;-77
2023/01/05 07:45:05;;;;;;;10.00;2.90;;;9.70;99.90;;;;;;6018227;23;20741;-77
2023/01/05 07:47:33;;;;;;;5.87;2.73;;;9.60;99.90;;;;;;6050987;23;20404;-78
2023/01/05 07:50:03;;;;;;;9.23;2.90;;;9.60;99.90;;;;;;6040529;23;20459;-77
2023/01/05 07:52:31;;;;;;;6.60;2.77;;;9.60;99.90;;;;;;6015090;23;20451;-77
2023/01/05 07:55:00;;;;;;;7.13;2.50;;;9.60;99.90;;;;;;6015331;23;20419;-77
2023/01/05 07:57:28;;;;;;;6.03;2.70;;;9.60;99.90;;;;;;6015283;23;20412;-77
2023/01/05 07:59:56;;;;;;;8.00;2.80;;;9.60;99.90;;;;;;6015164;23;20427;-77
2023/01/05 08:02:26;;;;;;;6.33;2.70;;;9.50;99.90;;;;;;6049908;23;20404;-77
2023/01/05 08:05:04;;;;;;;5.67;2.37;;;9.50;99.90;;;;;;6049731;23;20483;-77
2023/01/05 08:07:32;;;;;;;5.50;1.90;;;9.50;99.90;;;;;;6014832;23;20426;-77
2023/01/05 08:15:31;;;;;;;5.67;1.70;;;9.50;99.90;;;;;;6015022;23;20531;-77
2023/01/05 08:17:59;;;;;;;7.70;2.33;;;9.40;99.90;;;;;;6015315;23;20416;-77
2023/01/05 08:20:29;;;;;;;5.43;1.67;;;9.40;99.90;;;;;;6014931;23;20426;-76
2023/01/05 08:22:57;;;;;;;6.33;1.90;;;9.40;99.90;;;;;;6014824;23;20899;-76
2023/01/05 08:25:26;;;;;;;5.80;1.77;;;9.30;99.90;;;;;;6040533;23;20436;-76
2023/01/05 08:27:54;;;;;;;5.33;2.50;;;9.40;99.90;;;;;;6049674;23;20404;-75
2023/01/05 08:30:23;;;;;;;6.80;2.17;;;9.30;99.90;;;;;;6014798;23;20439;-77
2023/01/05 08:32:51;;;;;;;8.37;2.47;;;9.30;99.90;;;;;;6014809;23;20423;-75
2023/01/05 08:35:19;;;;;;;8.37;3.00;;;9.30;99.90;;;;;;6050586;23;20427;-76
2023/01/05 08:37:48;;;;;;;6.20;1.80;;;9.30;99.90;;;;;;6015455;23;20800;-75
2023/01/05 08:40:17;;;;;;;4.10;2.00;;;9.20;99.90;;;;;;6014615;23;20431;-75
2023/01/05 08:42:47;;;;;;;6.70;2.30;;;9.20;99.90;;;;;;6014758;23;20427;-75
2023/01/05 08:45:15;;;;;;;4.53;1.90;;;9.20;99.90;;;;;;6050976;23;20408;-77
2023/01/05 08:47:43;;;;;;;5.63;2.20;;;9.20;99.90;;;;;;6049938;23;20421;-76
2023/01/05 08:50:12;;;;;;;7.67;1.97;;;9.20;99.90;;;;;;6035052;23;20424;-77
2023/01/05 08:52:40;;;;;;;6.47;1.63;;;9.20;99.90;;;;;;6040502;23;20408;-75
2023/01/05 08:55:10;;;;;;;6.60;1.70;;;9.10;99.90;;;;;;6050065;23;20930;-77
2023/01/05 08:57:38;;;;;;;6.10;1.80;;;9.10;99.90;;;;;;6049556;23;20895;-77
2023/01/05 09:00:07;;;;;;;6.27;1.70;;;9.10;99.90;;;;;;6040072;23;20926;-76
2023/01/05 09:02:35;;;;;;;5.10;1.77;;;9.00;99.90;;;;;;6040258;23;20409;-75
2023/01/05 09:05:04;;;;;;;3.30;1.37;;;9.00;99.90;;;;;;6049483;23;20424;-76
2023/01/05 09:07:32;;;;;;;4.50;1.80;;;9.00;99.90;;;;;;6038257;23;21012;-77
2023/01/05 09:10:00;;;;;;;4.50;1.30;;;9.00;99.90;;;;;;6049579;23;20412;-77
2023/01/05 09:12:30;;;;;;;5.87;1.70;;;8.90;99.90;;;;;;6039193;23;20439;-76
2023/01/05 09:15:00;;;;;;;6.47;2.00;;;8.90;99.90;;;;;;6049258;23;20391;-75
2023/01/05 09:17:29;;;;;;;4.77;1.40;;;9.00;99.90;;;;;;6038415;23;20503;-77
2023/01/05 09:19:57;;;;;;;6.90;2.00;;;8.90;99.90;;;;;;6038176;23;20463;-76
2023/01/05 09:22:25;;;;;;;6.30;2.40;;;8.90;99.90;;;;;;6038265;23;20468;-76
2023/01/05 09:24:53;;;;;;;7.37;1.93;;;8.90;99.90;;;;;;6038018;23;20933;-77
2023/01/05 09:27:21;;;;;;;7.53;1.83;;;8.90;99.90;;;;;;6038047;23;20463;-76
2023/01/05 09:29:51;;;;;;;6.17;1.90;;;8.90;99.90;;;;;;6038161;23;20808;-76
2023/01/05 09:32:19;;;;;;;4.83;1.80;;;8.80;99.90;;;;;;6038505;23;20958;-76
2023/01/05 09:34:47;;;;;;;8.60;1.90;;;8.90;99.90;;;;;;6039831;23;20429;-76
2023/01/05 09:37:15;;;;;;;5.93;1.80;;;8.90;99.90;;;;;;6050752;23;20416;-76
2023/01/05 09:39:43;;;;;;;4.47;1.60;;;8.90;99.90;;;;;;6039861;23;20903;-76
2023/01/05 09:42:16;;;;;;;5.60;1.63;;;8.90;99.90;;;;;;6040047;23;20418;-76
2023/01/05 09:44:47;;;;;;;6.87;2.30;;;8.90;99.90;;;;;;6039831;23;20476;-76
2023/01/05 09:47:29;;;;;;;5.67;1.97;;;8.90;99.90;;;;;;6039727;23;20495;-76
2023/01/05 09:49:58;;;;;;;4.77;1.77;;;8.90;99.90;;;;;;6050720;23;20419;-76
2023/01/05 09:52:27;;;;;;;5.67;1.57;;;8.90;99.90;;;;;;6050612;23;20438;-76
2023/01/05 09:55:04;;;;;;;7.80;1.80;;;8.90;99.90;;;;;;6041528;23;20443;-76
2023/01/05 09:57:32;;;;;;;9.60;2.13;;;8.90;99.90;;;;;;6051543;23;20872;-76
2023/01/05 10:00:05;;;;;;;4.73;1.40;;;8.90;99.90;;;;;;6050822;23;20410;-76
2023/01/05 10:02:46;;;;;;;7.27;2.03;;;8.90;99.90;;;;;;6015902;23;20420;-76
2023/01/05 10:05:15;;;;;;;6.57;1.80;;;8.90;99.90;;;;;;6015979;23;20416;-76
2023/01/05 10:07:49;;;;;;;6.40;1.73;;;8.90;99.90;;;;;;6015857;23;20974;-76
2023/01/05 10:10:26;;;;;;;6.23;1.70;;;8.90;99.90;;;;;;6050999;23;20392;-76
2023/01/05 10:13:05;;;;;;;4.30;1.60;;;8.90;99.90;;;;;;6016000;23;20442;-76
2023/01/05 10:15:43;;;;;;;8.80;2.23;;;8.90;99.90;;;;;;6015812;23;20440;-76
2023/01/05 10:18:15;;;;;;;7.50;2.10;;;8.90;99.90;;;;;;6015754;23;20467;-76
2023/01/05 10:20:58;;;;;;;8.87;1.97;;;8.90;99.90;;;;;;6015937;23;20784;-75
2023/01/05 10:23:46;;;;;;;5.73;1.73;;;8.90;99.90;;;;;;6015837;23;20508;-75
2023/01/05 10:26:19;;;;;;;4.80;1.63;;;9.00;99.90;;;;;;6017371;23;20491;-76
2023/01/05 10:28:56;;;;;;;6.50;1.83;;;9.00;99.90;;;;;;6050851;23;20423;-76
2023/01/05 10:31:34;;;;;;;5.10;1.40;;;9.00;99.90;;;;;;6016282;23;20542;-76
2023/01/05 10:34:12;;;;;;;10.27;2.20;;;8.90;99.90;;;;;;6051332;23;20480;-76
2023/01/05 10:36:59;;;;;;;4.83;1.83;;;9.00;99.90;;;;;;6016264;23;20440;-76
2023/01/05 10:40:00;;;;;;;6.53;1.53;;;9.00;99.90;;;;;;6041306;23;20503;-76
2023/01/05 10:42:40;;;;;;;4.70;1.30;;;9.00;99.90;;;;;;6042093;23;20808;-76
2023/01/05 10:45:11;;;;;;;7.13;1.70;;;9.10;99.90;;;;;;6016247;23;20420;-76
2023/01/05 10:47:40;;;;;;;6.13;1.97;;;9.10;99.90;;;;;;6041597;23;20400;-76
2023/01/05 10:50:30;;;;;;;8.47;1.77;;;9.10;99.90;;;;;;6035301;23;20444;-76
2023/01/05 10:52:59;;;;;;;5.63;1.80;;;9.10;99.90;;;;;;6039366;23;20496;-76
2023/01/05 10:55:28;;;;;;;6.50;1.40;;;9.20;99.90;;;;;;6050420;23;20420;-76
2023/01/05 10:57:56;;;;;;;5.00;1.60;;;9.20;99.90;;;;;;6039594;23;20459;-76
2023/01/05 11:00:41;;;;;;;4.63;1.60;;;9.30;99.90;;;;;;6039915;23;20423;-76
2023/01/05 11:03:14;;;;;;;6.60;1.90;;;9.20;99.90;;;;;;6039647;23;20503;-75
2023/01/05 11:05:47;;;;;;;5.40;1.53;;;9.30;99.90;;;;;;6039241;23;20500;-75
2023/01/05 11:08:18;;;;;;;4.10;1.77;;;9.30;99.90;;;;;;6051625;23;20903;-77
2023/01/05 11:10:52;;;;;;;4.70;1.60;;;9.30;99.90;;;;;;6039306;23;20512;-75
2023/01/05 11:13:31;;;;;;;7.10;1.30;;;9.40;99.90;;;;;;6050683;23;20740;-75
2023/01/05 11:16:09;;;;;;;5.83;1.57;;;9.30;99.90;;;;;;6050811;23;20507;-76
2023/01/05 11:18:47;;;;;;;9.10;2.17;;;9.40;99.90;;;;;;6038948;23;20424;-76
2023/01/05 11:21:19;;;;;;;5.57;1.50;;;9.40;99.90;;;;;;6039097;23;20404;-76
2023/01/05 11:23:49;;;;;;;6.90;1.97;;;9.40;99.90;;;;;;6038961;23;20857;-76
2023/01/05 11:26:30;;;;;;;5.77;2.23;;;9.40;99.90;;;;;;6039609;23;20439;-75
2023/01/05 11:29:15;;;;;;;6.07;1.73;;;9.40;99.90;;;;;;6040885;23;20408;-77
2023/01/05 11:31:47;;;;;;;5.93;2.10;;;9.40;99.90;;;;;;6039889;23;20434;-76
2023/01/05 11:34:39;;;;;;;6.80;2.00;;;9.40;99.90;;;;;;6038811;23;20423;-76
2023/01/05 11:37:21;;;;;;;5.63;2.50;;;9.40;99.90;;;;;;6037674;23;20448;-76
2023/01/05 11:39:52;;;;;;;4.83;1.87;;;9.40;99.90;;;;;;6039571;23;20515;-76
2023/01/05 11:42:29;;;;;;;7.80;2.80;;;9.40;99.90;;;;;;6039031;23;20904;-76
2023/01/05 11:45:00;;;;;;;6.97;2.10;;;9.40;99.90;;;;;;6043612;23;20399;-76
2023/01/05 11:47:31;;;;;;;7.73;2.13;;;9.40;99.90;;;;;;6039996;23;20466;-75
2023/01/05 11:50:20;;;;;;;8.57;2.77;;;9.40;99.90;;;;;;6050246;23;20466;-76
2023/01/05 11:52:52;;;;;;;7.93;2.20;;;9.50;99.90;;;;;;6050106;23;20983;-75
2023/01/05 11:55:35;;;;;;;6.60;1.73;;;9.50;99.90;;;;;;6014385;23;20518;-75
2023/01/05 11:58:16;;;;;;;10.03;2.30;;;9.50;99.90;;;;;;6049932;23;20416;-76
2023/01/05 12:01:10;;;;;;;8.00;1.87;;;9.50;99.90;;;;;;6015010;23;20802;-76
2023/01/05 12:03:56;;;;;;;9.00;1.90;;;9.50;99.90;;;;;;6014998;23;20442;-77
2023/01/05 12:06:37;;;;;;;6.33;1.83;;;9.50;99.90;;;;;;6049893;23;20423;-75
2023/01/05 12:09:16;;;;;;;6.77;2.20;;;9.50;99.90;;;;;;6040089;23;20868;-76
2023/01/05 12:11:51;;;;;;;5.90;1.67;;;9.50;99.90;;;;;;6040978;23;20388;-76
2023/01/05 12:14:39;;;;;;;9.13;2.07;;;9.50;99.90;;;;;;6015294;23;20435;-76
2023/01/05 12:17:14;;;;;;;5.93;1.53;;;9.50;99.90;;;;;;6040549;23;20429;-76
2023/01/05 12:19:57;;;;;;;4.50;1.63;;;9.60;99.90;;;;;;6050465;23;20893;-76
2023/01/05 12:22:49;;;;;;;5.60;2.27;;;9.50;99.90;;;;;;6014690;23;20416;-75
2023/01/05 12:25:35;;;;;;;8.53;1.87;;;9.50;99.90;;;;;;6049756;23;20440;-75
2023/01/05 12:28:25;;;;;;;5.67;1.60;;;9.60;99.90;;;;;;6015851;23;20779;-75
2023/01/05 12:31:21;;;;;;;9.73;2.10;;;9.60;99.90;;;;;;6049388;23;20393;-75
2023/01/05 12:34:32;;;;;;;5.90;1.53;;;9.60;99.90;;;;;;6049166;23;20436;-76
2023/01/05 12:37:19;;;;;;;6.70;2.30;;;9.60;99.90;;;;;;6049489;23;20507;-76
2023/01/05 12:40:14;;;;;;;7.87;1.90;;;9.60;99.90;;;;;;6014947;23;20443;-76
2023/01/05 12:42:57;;;;;;;6.63;1.63;;;9.60;99.90;;;;;;6039957;23;20415;-76
2023/01/05 12:45:54;;;;;;;6.27;1.90;;;9.60;99.90;;;;;;6040479;23;20435;-76
2023/01/05 12:48:28;;;;;;;6.67;1.67;;;9.60;99.90;;;;;;6039729;23;20391;-75
2023/01/05 12:51:04;;;;;;;7.27;1.80;;;9.60;99.90;;;;;;6014484;23;20513;-76
2023/01/05 12:53:43;;;;;;;6.67;1.67;;;9.60;99.90;;;;;;6049957;23;20883;-76
2023/01/05 12:56:19;;;;;;;5.60;1.60;;;9.60;99.90;;;;;;6014510;23;20990;-76
2023/01/05 12:58:59;;;;;;;9.20;2.20;;;9.60;99.90;;;;;;6014637;23;20412;-77
2023/01/05 13:01:31;;;;;;;5.23;1.50;;;9.60;99.90;;;;;;6049591;23;20387;-76
2023/01/05 13:04:03;;;;;;;7.27;1.50;;;9.60;99.90;;;;;;6014860;23;20777;-75
2023/01/05 13:06:37;;;;;;;5.70;1.70;;;9.60;99.90;;;;;;6015309;23;20447;-76
2023/01/05 13:09:14;;;;;;;5.37;1.47;;;9.70;99.90;;;;;;6016499;23;20412;-75
2023/01/05 13:11:46;;;;;;;4.67;1.60;;;9.70;99.90;;;;;;6016346;23;20868;-76
2023/01/05 13:14:19;;;;;;;4.80;1.73;;;9.70;99.90;;;;;;6016318;23;20439;-76
2023/01/05 13:16:53;;;;;;;5.73;1.60;;;9.70;99.90;;;;;;6016341;23;20451;-76
2023/01/05 13:19:33;;;;;;;8.97;1.60;;;9.70;99.90;;;;;;6016842;23;20495;-76
2023/01/05 13:22:06;;;;;;;5.60;1.97;;;9.70;99.90;;;;;;6051781;23;20387;-76
2023/01/05 13:24:37;;;;;;;5.10;1.53;;;9.70;99.90;;;;;;6016442;23;20956;-76
2023/01/05 13:27:06;;;;;;;6.80;2.10;;;9.70;99.90;;;;;;6041685;23;20427;-76
2023/01/05 13:29:39;;;;;;;4.87;1.60;;;9.70;99.90;;;;;;6041811;23;20423;-76
2023/01/05 13:32:33;;;;;;;6.73;2.23;;;9.70;99.90;;;;;;6016250;23;20416;-76
2023/01/05 13:35:30;;;;;;;5.60;1.50;;;9.70;99.90;;;;;;6016093;23;20503;-75
2023/01/05 13:38:30;;;;;;;4.80;1.50;;;9.70;99.90;;;;;;6050958;23;20475;-76
2023/01/05 13:41:19;;;;;;;6.23;2.13;;;9.70;99.90;;;;;;6016400;23;20450;-75
2023/01/05 13:44:11;;;;;;;7.47;1.80;;;9.70;99.90;;;;;;6016067;23;20419;-76
2023/01/05 13:47:12;;;;;;;7.60;1.77;;;9.70;99.90;;;;;;6016202;23;20768;-75
2023/01/05 13:50:01;;;;;;;7.40;2.00;;;9.80;99.90;;;;;;6027067;23;20442;-76
2023/01/05 13:52:42;;;;;;;7.00;2.00;;;9.80;99.90;;;;;;6039867;23;20408;-76